地図

経路データ

SID SEASON NUMBER BASIN SUBBASIN NAME ISO_TIME NATURE LAT LON WMO_WIND WMO_PRES WMO_AGENCY TRACK_TYPE DIST2LAND LANDFALL IFLAG USA_AGENCY USA_ATCF_ID USA_LAT USA_LON USA_RECORD USA_STATUS USA_WIND USA_PRES USA_SSHS USA_R34_NE USA_R34_SE USA_R34_SW USA_R34_NW USA_R50_NE USA_R50_SE USA_R50_SW USA_R50_NW USA_R64_NE USA_R64_SE USA_R64_SW USA_R64_NW USA_POCI USA_ROCI USA_RMW USA_EYE TOKYO_LAT TOKYO_LON TOKYO_GRADE TOKYO_WIND TOKYO_PRES TOKYO_R50_DIR TOKYO_R50_LONG TOKYO_R50_SHORT TOKYO_R30_DIR TOKYO_R30_LONG TOKYO_R30_SHORT TOKYO_LAND CMA_LAT CMA_LON CMA_CAT CMA_WIND CMA_PRES HKO_LAT HKO_LON HKO_CAT HKO_WIND HKO_PRES NEWDELHI_LAT NEWDELHI_LON NEWDELHI_GRADE NEWDELHI_WIND NEWDELHI_PRES NEWDELHI_CI NEWDELHI_DP NEWDELHI_POCI REUNION_LAT REUNION_LON REUNION_TYPE REUNION_WIND REUNION_PRES REUNION_TNUM REUNION_CI REUNION_RMW REUNION_R34_NE REUNION_R34_SE REUNION_R34_SW REUNION_R34_NW REUNION_R50_NE REUNION_R50_SE REUNION_R50_SW REUNION_R50_NW REUNION_R64_NE REUNION_R64_SE REUNION_R64_SW REUNION_R64_NW BOM_LAT BOM_LON BOM_TYPE BOM_WIND BOM_PRES BOM_TNUM BOM_CI BOM_RMW BOM_R34_NE BOM_R34_SE BOM_R34_SW BOM_R34_NW BOM_R50_NE BOM_R50_SE BOM_R50_SW BOM_R50_NW BOM_R64_NE BOM_R64_SE BOM_R64_SW BOM_R64_NW BOM_ROCI BOM_POCI BOM_EYE BOM_POS_METHOD BOM_PRES_METHOD NADI_LAT NADI_LON NADI_CAT NADI_WIND NADI_PRES WELLINGTON_LAT WELLINGTON_LON WELLINGTON_WIND WELLINGTON_PRES DS824_LAT DS824_LON DS824_STAGE DS824_WIND DS824_PRES TD9636_LAT TD9636_LON TD9636_STAGE TD9636_WIND TD9636_PRES TD9635_LAT TD9635_LON TD9635_WIND TD9635_PRES TD9635_ROCI NEUMANN_LAT NEUMANN_LON NEUMANN_CLASS NEUMANN_WIND NEUMANN_PRES MLC_LAT MLC_LON MLC_CLASS MLC_WIND MLC_PRES USA_GUST BOM_GUST BOM_GUST_PER REUNION_GUST REUNION_GUST_PER USA_SEAHGT USA_SEARAD_NE USA_SEARAD_SE USA_SEARAD_SW USA_SEARAD_NW STORM_SPEED STORM_DIR
1960261N21296 1960 72 NA NA FLORENCE 1960-09-17 06:00:00 TS 20.9000 -64.0000 25 hurdat_atl main 325 315 O_____________ hurdat_atl AL071960 20.9000 -64.0000 TD 25 -1 7 287
1960261N21296 1960 72 NA NA FLORENCE 1960-09-17 09:00:00 TS 21.0076 -64.3799 main 316 312 P_____________ AL071960 21.0076 -64.3799 TD 25 -1 8 285
1960261N21296 1960 72 NA NA FLORENCE 1960-09-17 12:00:00 TS 21.1000 -64.8000 25 hurdat_atl main 313 306 O_____________ hurdat_atl AL071960 21.1000 -64.8000 TD 25 -1 9 281
1960261N21296 1960 72 NA NA FLORENCE 1960-09-17 15:00:00 TS 21.1650 -65.2850 main 314 313 P_____________ AL071960 21.1650 -65.2850 TD 27 -1 9 276
1960261N21296 1960 72 NA NA FLORENCE 1960-09-17 18:00:00 TS 21.2000 -65.8000 30 hurdat_atl main 313 313 O_____________ hurdat_atl AL071960 21.2000 -65.8000 TD 30 -1 9 273
1960261N21296 1960 72 NA NA FLORENCE 1960-09-17 21:00:00 TS 21.2223 -66.2924 main 313 313 P_____________ AL071960 21.2223 -66.2924 TD 32 -1 9 270
1960261N21296 1960 72 NA NA FLORENCE 1960-09-18 00:00:00 TS 21.2000 -66.8000 35 hurdat_atl main 313 289 O_____________ hurdat_atl AL071960 21.2000 -66.8000 TS 35 0 10 263
1960261N21296 1960 72 NA NA FLORENCE 1960-09-18 03:00:00 TS 21.1074 -67.3427 main 289 239 P_____________ AL071960 21.1074 -67.3427 TS 37 0 10 259
1960261N21296 1960 72 NA NA FLORENCE 1960-09-18 06:00:00 TS 21.0000 -67.9000 40 hurdat_atl main 239 202 O_____________ hurdat_atl AL071960 21.0000 -67.9000 TS 40 0 10 261
1960261N21296 1960 72 NA NA FLORENCE 1960-09-18 09:00:00 TS 20.9348 -68.4500 main 202 178 P_____________ AL071960 20.9348 -68.4500 TS 42 0 10 264
1960261N21296 1960 72 NA NA FLORENCE 1960-09-18 12:00:00 TS 20.9000 -69.0000 45 1000 hurdat_atl main 178 154 O_____________ hurdat_atl AL071960 20.9000 -69.0000 TS 45 1000 0 10 268
1960261N21296 1960 72 NA NA FLORENCE 1960-09-18 15:00:00 TS 20.8923 -69.5499 main 154 133 P_____________ AL071960 20.8923 -69.5499 TS 42 1001 0 10 270
1960261N21296 1960 72 NA NA FLORENCE 1960-09-18 18:00:00 TS 20.9000 -70.1000 40 1003 hurdat_atl main 133 123 O_____________ hurdat_atl AL071960 20.9000 -70.1000 TS 40 1003 0 10 270
1960261N21296 1960 72 NA NA FLORENCE 1960-09-18 21:00:00 TS 20.8923 -70.6426 main 123 123 P_____________ AL071960 20.8923 -70.6426 TS 40 1003 0 10 270
1960261N21296 1960 72 NA NA FLORENCE 1960-09-19 00:00:00 TS 20.9000 -71.2000 40 1003 hurdat_atl main 123 123 O_____________ hurdat_atl AL071960 20.9000 -71.2000 TS 40 1003 0 11 272
1960261N21296 1960 72 NA NA FLORENCE 1960-09-19 03:00:00 TS 20.9327 -71.7728 main 123 66 P_____________ AL071960 20.9327 -71.7728 TS 40 1003 0 11 275
1960261N21296 1960 72 NA NA FLORENCE 1960-09-19 06:00:00 TS 21.0000 -72.4000 40 1004 hurdat_atl main 66 0 O_____________ hurdat_atl AL071960 21.0000 -72.4000 TS 40 1004 0 13 278
1960261N21296 1960 72 NA NA FLORENCE 1960-09-19 09:00:00 TS 21.1000 -73.1000 35 1004 hurdat_atl main 0 0 O_____________ hurdat_atl AL071960 21.1000 -73.1000 L TS 35 1004 0 12 275
1960261N21296 1960 72 NA NA FLORENCE 1960-09-19 12:00:00 TS 21.1000 -73.7000 35 1006 hurdat_atl main 0 0 O_____________ hurdat_atl AL071960 21.1000 -73.7000 TS 35 1006 0 11 278
1960261N21296 1960 72 NA NA FLORENCE 1960-09-19 15:00:00 TS 21.2521 -74.2272 main 56 56 P_____________ AL071960 21.2521 -74.2272 TS 32 -1 10 293
1960261N21296 1960 72 NA NA FLORENCE 1960-09-19 18:00:00 TS 21.5000 -74.7000 30 hurdat_atl main 100 91 O_____________ hurdat_atl AL071960 21.5000 -74.7000 TD 30 -1 10 299
1960261N21296 1960 72 NA NA FLORENCE 1960-09-19 21:00:00 TS 21.7348 -75.1577 main 88 88 P_____________ AL071960 21.7348 -75.1577 TD 30 -1 10 301
1960261N21296 1960 72 NA NA FLORENCE 1960-09-20 00:00:00 TS 22.0000 -75.6000 30 hurdat_atl main 108 103 O_____________ hurdat_atl AL071960 22.0000 -75.6000 TD 30 -1 10 304
1960261N21296 1960 72 NA NA FLORENCE 1960-09-20 03:00:00 TS 22.2922 -76.0352 main 124 113 P_____________ AL071960 22.2922 -76.0352 TD 27 -1 10 306
1960261N21296 1960 72 NA NA FLORENCE 1960-09-20 06:00:00 TS 22.6000 -76.5000 25 hurdat_atl main 118 113 O_____________ hurdat_atl AL071960 22.6000 -76.5000 TD 25 -1 11 304
1960261N21296 1960 72 NA NA FLORENCE 1960-09-20 09:00:00 TS 22.9225 -77.0423 main 134 118 P_____________ AL071960 22.9225 -77.0423 TD 25 -1 12 301
1960261N21296 1960 72 NA NA FLORENCE 1960-09-20 12:00:00 TS 23.2000 -77.6000 25 hurdat_atl main 118 89 O_____________ hurdat_atl AL071960 23.2000 -77.6000 TD 25 -1 11 295
1960261N21296 1960 72 NA NA FLORENCE 1960-09-20 15:00:00 TS 23.3798 -78.1078 main 89 88 P_____________ AL071960 23.3798 -78.1078 TD 25 -1 10 288
1960261N21296 1960 72 NA NA FLORENCE 1960-09-20 18:00:00 TS 23.5000 -78.6000 25 hurdat_atl main 99 99 O_____________ hurdat_atl AL071960 23.5000 -78.6000 TD 25 -1 9 285
1960261N21296 1960 72 NA NA FLORENCE 1960-09-20 21:00:00 TS 23.6223 -79.1000 main 112 98 P_____________ AL071960 23.6223 -79.1000 TD 25 -1 9 282
1960261N21296 1960 72 NA NA FLORENCE 1960-09-21 00:00:00 TS 23.7000 -79.6000 25 hurdat_atl main 98 88 O_____________ hurdat_atl AL071960 23.7000 -79.6000 TD 25 -1 9 276
1960261N21296 1960 72 NA NA FLORENCE 1960-09-21 03:00:00 TS 23.7223 -80.1001 main 88 78 P_____________ AL071960 23.7223 -80.1001 TD 25 -1 9 270
1960261N21296 1960 72 NA NA FLORENCE 1960-09-21 06:00:00 TS 23.7000 -80.6000 25 hurdat_atl main 78 70 O_____________ hurdat_atl AL071960 23.7000 -80.6000 TD 25 -1 9 266
1960261N21296 1960 72 NA NA FLORENCE 1960-09-21 09:00:00 TS 23.6648 -81.1000 main 70 55 P_____________ AL071960 23.6648 -81.1000 TD 25 -1 9 264
1960261N21296 1960 72 NA NA FLORENCE 1960-09-21 12:00:00 NR 23.6000 -81.6000 25 hurdat_atl main 55 44 O_____________ hurdat_atl AL071960 23.6000 -81.6000 DB 25 -3 9 262
1960261N21296 1960 72 NA NA FLORENCE 1960-09-21 15:00:00 NR 23.5373 -82.0997 main 44 33 P_____________ AL071960 23.5373 -82.0997 DB 25 -3 9 258
1960261N21296 1960 72 NA NA FLORENCE 1960-09-21 18:00:00 NR 23.4000 -82.6000 25 hurdat_atl main 35 22 O_____________ hurdat_atl AL071960 23.4000 -82.6000 DB 25 -3 10 247
1960261N21296 1960 72 NA GM FLORENCE 1960-09-21 21:00:00 NR 23.1227 -83.1455 main 22 0 P_____________ AL071960 23.1227 -83.1455 DB 25 -3 11 237
1960261N21296 1960 72 NA NA FLORENCE 1960-09-22 00:00:00 NR 22.8000 -83.6000 25 hurdat_atl main 0 0 O_____________ hurdat_atl AL071960 22.8000 -83.6000 DB 25 -3 9 229
1960261N21296 1960 72 NA NA FLORENCE 1960-09-22 03:00:00 NR 22.5273 -83.8974 main 0 0 P_____________ AL071960 22.5273 -83.8974 DB 25 -3 6 216
1960261N21296 1960 72 NA NA FLORENCE 1960-09-22 06:00:00 NR 22.3000 -84.0000 25 hurdat_atl main 0 0 O_____________ hurdat_atl AL071960 22.3000 -84.0000 DB 25 -3 4 0
1960261N21296 1960 72 NA CS FLORENCE 1960-09-22 09:00:00 NR 22.0900 -83.8947 main 10 10 P_____________ AL071960 22.0900 -83.8947 DB 25 -3 4 137
1960261N21296 1960 72 NA CS FLORENCE 1960-09-22 12:00:00 NR 22.0000 -83.7000 25 hurdat_atl main 22 11 O_____________ hurdat_atl AL071960 22.0000 -83.7000 DB 25 -3 3 93
1960261N21296 1960 72 NA CS FLORENCE 1960-09-22 15:00:00 NR 22.0750 -83.6000 main 11 0 P_____________ AL071960 22.0750 -83.6000 DB 25 -3 4 31
1960261N21296 1960 72 NA NA FLORENCE 1960-09-22 18:00:00 NR 22.3000 -83.5000 25 hurdat_atl main 0 0 O_____________ hurdat_atl AL071960 22.3000 -83.5000 DB 25 -3 6 21
1960261N21296 1960 72 NA NA FLORENCE 1960-09-22 21:00:00 NR 22.5974 -83.3797 main 0 0 P_____________ AL071960 22.5974 -83.3797 DB 25 -3 8 22
1960261N21296 1960 72 NA GM FLORENCE 1960-09-23 00:00:00 NR 23.0000 -83.2000 25 hurdat_atl main 11 11 O_____________ hurdat_atl AL071960 23.0000 -83.2000 DB 25 -3 10 25
1960261N21296 1960 72 NA NA FLORENCE 1960-09-23 03:00:00 NR 23.4850 -82.9375 main 56 56 P_____________ AL071960 23.4850 -82.9375 DB 25 -3 11 29
1960261N21296 1960 72 NA NA FLORENCE 1960-09-23 06:00:00 NR 24.0000 -82.6000 25 hurdat_atl main 101 101 O_____________ hurdat_atl AL071960 24.0000 -82.6000 DB 25 -3 12 35
1960261N21296 1960 72 NA NA FLORENCE 1960-09-23 09:00:00 NR 24.4501 -82.2073 main 127 69 P_____________ AL071960 24.4501 -82.2073 DB 25 -3 12 39
1960261N21296 1960 72 NA GM FLORENCE 1960-09-23 12:00:00 TS 24.9000 -81.8000 25 1005 hurdat_atl main 69 32 O_____________ hurdat_atl AL071960 24.9000 -81.8000 TD 25 1005 -1 12 36
1960261N21296 1960 72 NA GM FLORENCE 1960-09-23 15:00:00 TS 25.4074 -81.4349 main 22 0 P_____________ AL071960 25.4074 -81.4349 TD 27 1004 -1 12 32
1960261N21296 1960 72 NA NA FLORENCE 1960-09-23 18:00:00 TS 25.9000 -81.1000 30 hurdat_atl main 0 0 I_____________ hurdat_atl AL071960 25.9000 -81.1000 TD 30 1003 -1 11 33
1960261N21296 1960 72 NA NA FLORENCE 1960-09-23 21:00:00 TS 26.3300 -80.7625 main 0 0 P_____________ AL071960 26.3300 -80.7625 TD 32 1002 -1 10 34
1960261N21296 1960 72 NA NA FLORENCE 1960-09-24 00:00:00 TS 26.7000 -80.5000 35 1002 hurdat_atl main 0 0 O_____________ hurdat_atl AL071960 26.7000 -80.5000 TS 35 1002 0 8 28
1960261N21296 1960 72 NA NA FLORENCE 1960-09-24 03:00:00 TS 27.0449 -80.3398 main 0 0 P_____________ AL071960 27.0449 -80.3398 TS 42 0 6 16
1960261N21296 1960 72 NA NA FLORENCE 1960-09-24 06:00:00 TS 27.3000 -80.3000 50 hurdat_atl main 0 0 O_____________ hurdat_atl AL071960 27.3000 -80.3000 TS 50 0 4 0
1960261N21296 1960 72 NA NA FLORENCE 1960-09-24 09:00:00 TS 27.4374 -80.3474 main 0 0 P_____________ AL071960 27.4374 -80.3474 TS 50 0 3 318
1960261N21296 1960 72 NA NA FLORENCE 1960-09-24 12:00:00 TS 27.5000 -80.5000 50 hurdat_atl main 0 0 O_____________ hurdat_atl AL071960 27.5000 -80.5000 TS 50 0 3 291
1960261N21296 1960 72 NA NA FLORENCE 1960-09-24 15:00:00 TS 27.5574 -80.7051 main 0 0 P_____________ AL071960 27.5574 -80.7051 TS 45 0 5 283
1960261N21296 1960 72 NA NA FLORENCE 1960-09-24 18:00:00 TS 27.6000 -81.0000 40 hurdat_atl main 0 0 O_____________ hurdat_atl AL071960 27.6000 -81.0000 TS 40 0 6 279
1960261N21296 1960 72 NA NA FLORENCE 1960-09-24 21:00:00 TS 27.6498 -81.3550 main 0 0 P_____________ AL071960 27.6498 -81.3550 TS 35 0 7 278
1960261N21296 1960 72 NA NA FLORENCE 1960-09-25 00:00:00 TS 27.7000 -81.8000 30 hurdat_atl main 0 0 O_____________ hurdat_atl AL071960 27.7000 -81.8000 TD 30 -1 9 277
1960261N21296 1960 72 NA NA FLORENCE 1960-09-25 03:00:00 TS 27.7501 -82.3350 main 0 0 P_____________ AL071960 27.7501 -82.3350 TD 27 -1 10 276
1960261N21296 1960 72 NA GM FLORENCE 1960-09-25 06:00:00 TS 27.8000 -82.9000 25 hurdat_atl main 9 9 O_____________ hurdat_atl AL071960 27.8000 -82.9000 TD 25 -1 10 275
1960261N21296 1960 72 NA GM FLORENCE 1960-09-25 09:00:00 TS 27.8273 -83.4153 main 50 50 P_____________ AL071960 27.8273 -83.4153 TD 25 -1 9 276
1960261N21296 1960 72 NA GM FLORENCE 1960-09-25 12:00:00 TS 27.9000 -83.9000 25 hurdat_atl main 98 98 O_____________ hurdat_atl AL071960 27.9000 -83.9000 TD 25 -1 9 286
1960261N21296 1960 72 NA GM FLORENCE 1960-09-25 15:00:00 TS 28.0623 -84.3650 main 148 148 P_____________ AL071960 28.0623 -84.3650 TD 25 -1 9 297
1960261N21296 1960 72 NA GM FLORENCE 1960-09-25 18:00:00 TS 28.3000 -84.8000 25 hurdat_atl main 156 122 O_____________ hurdat_atl AL071960 28.3000 -84.8000 TD 25 -1 9 305
1960261N21296 1960 72 NA GM FLORENCE 1960-09-25 21:00:00 TS 28.5848 -85.2076 main 122 91 P_____________ AL071960 28.5848 -85.2076 TD 25 -1 9 311
1960261N21296 1960 72 NA GM FLORENCE 1960-09-26 00:00:00 TS 28.9000 -85.6000 25 hurdat_atl main 91 73 O_____________ hurdat_atl AL071960 28.9000 -85.6000 TD 25 -1 9 311
1960261N21296 1960 72 NA GM FLORENCE 1960-09-26 03:00:00 TS 29.1999 -86.0077 main 80 80 P_____________ AL071960 29.1999 -86.0077 TD 22 -1 9 311
1960261N21296 1960 72 NA GM FLORENCE 1960-09-26 06:00:00 TS 29.5000 -86.4000 20 hurdat_atl main 91 66 O_____________ hurdat_atl AL071960 29.5000 -86.4000 TD 20 -1 9 312
1960261N21296 1960 72 NA GM FLORENCE 1960-09-26 09:00:00 TS 29.7924 -86.7653 main 66 24 P_____________ AL071960 29.7924 -86.7653 TD 20 -1 9 315
1960261N21296 1960 72 NA GM FLORENCE 1960-09-26 12:00:00 TS 30.1000 -87.1000 20 hurdat_atl main 24 0 O_____________ hurdat_atl AL071960 30.1000 -87.1000 TD 20 -1 9 319
1960261N21296 1960 72 NA GM FLORENCE 1960-09-26 15:00:00 TS 30.4401 -87.4070 main 9 0 P_____________ AL071960 30.4401 -87.4070 TD 20 -1 9 324
1960261N21296 1960 72 NA NA FLORENCE 1960-09-26 18:00:00 TS 30.8000 -87.7000 20 hurdat_atl main 0 O_____________ hurdat_atl AL071960 30.8000 -87.7000 TD 20 -1 9 325

IBTrACS Databaseについて

本データベースは、米国NOAAが公開する1842年以降の世界の熱帯低気圧のベストトラックデータアーカイブInternational Best Track Archive for Climate Stewardship (IBTrACS)を、ウェブで閲覧しやすい形式に変換したものです。

最終更新日:2021-10-08